createdAt,value
2022-11-18T00:00:28.467Z,13.40
2022-11-18T00:02:59.722Z,13.13
2022-11-18T00:05:31.177Z,14.37
2022-11-18T00:08:02.459Z,11.93
2022-11-18T00:10:33.900Z,12.33
2022-11-18T00:13:24.192Z,12.07
2022-11-18T00:16:07.584Z,12.40
2022-11-18T00:18:39.261Z,12.63
2022-11-18T00:21:12.120Z,11.97
2022-11-18T00:23:43.397Z,12.37
2022-11-18T00:26:14.982Z,13.33
2022-11-18T00:28:46.241Z,10.17
2022-11-18T00:31:17.615Z,10.87
2022-11-18T00:33:48.871Z,12.13
2022-11-18T00:36:20.185Z,13.27
2022-11-18T00:38:51.436Z,12.83
2022-11-18T00:41:22.773Z,11.10
2022-11-18T00:43:54.117Z,14.87
2022-11-18T00:46:25.461Z,12.87
2022-11-18T00:48:56.695Z,11.93
2022-11-18T00:51:27.957Z,12.77
2022-11-18T00:53:59.248Z,10.03
2022-11-18T00:56:30.540Z,14.07
2022-11-18T00:59:01.913Z,16.70
2022-11-18T01:01:33.625Z,13.23
2022-11-18T01:04:05.065Z,12.57
2022-11-18T01:06:36.338Z,9.80
2022-11-18T01:09:07.643Z,14.10
2022-11-18T01:11:57.636Z,13.37
2022-11-18T01:14:29.068Z,16.70
2022-11-18T01:17:00.464Z,14.17
2022-11-18T01:19:31.732Z,15.50
2022-11-18T01:22:03.611Z,15.50
2022-11-18T01:24:35.010Z,12.53
2022-11-18T01:27:06.346Z,11.80
2022-11-18T01:29:37.620Z,12.87
2022-11-18T01:32:23.990Z,12.63
2022-11-18T01:34:56.483Z,14.60
2022-11-18T01:37:27.785Z,13.07
2022-11-18T01:39:59.036Z,17.10
2022-11-18T01:42:30.331Z,13.63
2022-11-18T01:45:05.140Z,13.23
2022-11-18T01:47:46.663Z,14.73
2022-11-18T01:50:21.424Z,15.27
2022-11-18T01:52:57.823Z,17.73
2022-11-18T01:55:34.121Z,14.90
2022-11-18T01:58:15.764Z,16.73
2022-11-18T02:00:47.142Z,18.13
2022-11-18T02:03:18.747Z,15.87
2022-11-18T02:05:53.704Z,10.17
2022-11-18T02:08:25.728Z,16.57
2022-11-18T02:10:57.093Z,15.03
2022-11-18T02:13:28.960Z,14.97
2022-11-18T02:16:19.040Z,13.07
2022-11-18T02:19:02.693Z,14.93
2022-11-18T02:21:45.354Z,12.70
2022-11-18T02:24:58.592Z,16.50
2022-11-18T02:27:55.717Z,12.57
2022-11-18T02:30:39.145Z,15.73
2022-11-18T02:33:17.932Z,14.43
2022-11-18T02:35:56.613Z,13.93
2022-11-18T02:39:05.320Z,14.17
2022-11-18T02:41:39.513Z,13.77
2022-11-18T02:44:16.222Z,14.77
2022-11-18T02:46:52.991Z,13.97
2022-11-18T02:49:34.670Z,12.80
2022-11-18T02:52:09.048Z,14.30
2022-11-18T02:54:43.539Z,14.97
2022-11-18T02:57:15.921Z,14.80
2022-11-18T02:59:47.358Z,17.13
2022-11-18T03:02:23.155Z,16.67
2022-11-18T03:04:57.658Z,16.60
2022-11-18T03:07:36.412Z,12.97
2022-11-18T03:10:07.903Z,15.60
2022-11-18T03:13:20.454Z,14.60
2022-11-18T03:16:16.605Z,12.87
2022-11-18T03:19:01.643Z,18.37
2022-11-18T03:22:02.183Z,16.00
2022-11-18T03:24:39.712Z,14.43
2022-11-18T03:27:18.431Z,15.50
2022-11-18T03:29:59.064Z,15.60
2022-11-18T03:32:36.246Z,14.53
2022-11-18T03:35:11.235Z,14.90
2022-11-18T03:37:44.419Z,14.93
2022-11-18T03:40:21.978Z,15.43
2022-11-18T03:42:59.857Z,21.47
2022-11-18T03:45:37.122Z,19.63
2022-11-18T03:48:16.372Z,16.40
2022-11-18T03:50:56.195Z,19.73
2022-11-18T03:53:30.851Z,20.87
2022-11-18T03:56:12.863Z,16.70
2022-11-18T03:59:00.407Z,12.50
2022-11-18T04:01:38.965Z,14.00
2022-11-18T04:04:11.240Z,15.87
2022-11-18T04:06:48.601Z,16.93
2022-11-18T04:09:33.429Z,19.33
2022-11-18T04:12:10.883Z,18.43
2022-11-18T04:14:44.316Z,16.97
2022-11-18T04:17:19.681Z,17.50
2022-11-18T04:19:51.037Z,21.50
2022-11-18T04:22:22.324Z,18.00
2022-11-18T04:24:53.580Z,18.17
2022-11-18T04:27:24.913Z,21.37
2022-11-18T04:29:56.228Z,15.03
2022-11-18T04:32:27.495Z,20.10
2022-11-18T04:34:59.100Z,20.33
2022-11-18T04:37:30.430Z,18.57
2022-11-18T04:40:01.792Z,20.67
2022-11-18T04:42:33.051Z,21.23
2022-11-18T04:45:05.398Z,20.37
2022-11-18T04:47:37.298Z,18.97
2022-11-18T04:50:08.998Z,22.57
2022-11-18T04:52:40.320Z,21.40
2022-11-18T04:55:11.592Z,21.83
2022-11-18T04:57:42.838Z,20.37
2022-11-18T05:00:14.558Z,24.57
2022-11-18T05:02:45.943Z,28.17
2022-11-18T05:05:17.273Z,24.80
2022-11-18T05:07:48.695Z,20.97
2022-11-18T05:10:19.992Z,21.53
2022-11-18T05:12:52.328Z,21.00
2022-11-18T05:15:24.485Z,20.30
2022-11-18T05:17:59.256Z,23.93
2022-11-18T05:20:30.838Z,21.40
2022-11-18T05:23:02.169Z,20.03
2022-11-18T05:25:35.533Z,20.27
2022-11-18T05:28:06.869Z,22.30
2022-11-18T05:30:38.224Z,20.57
2022-11-18T05:33:09.555Z,23.50
2022-11-18T05:35:40.904Z,22.33
2022-11-18T05:38:12.286Z,23.13
2022-11-18T05:40:43.704Z,22.17
2022-11-18T05:43:15.064Z,21.93
2022-11-18T05:45:46.701Z,28.47
2022-11-18T05:48:18.761Z,22.77
2022-11-18T05:50:51.967Z,19.73
2022-11-18T05:53:24.800Z,26.00
2022-11-18T05:56:07.381Z,19.67
2022-11-18T05:58:38.657Z,24.97
2022-11-18T06:01:11.936Z,23.50
2022-11-18T06:03:43.765Z,20.40
2022-11-18T06:06:17.631Z,26.10
2022-11-18T06:09:10.569Z,23.10
2022-11-18T06:11:46.566Z,24.50
2022-11-18T06:14:24.792Z,22.38
2022-11-18T06:17:02.162Z,23.77
2022-11-18T06:19:34.088Z,24.97
2022-11-18T06:22:06.596Z,24.43
2022-11-18T06:24:38.662Z,25.90
2022-11-18T06:27:10.564Z,22.77
2022-11-18T06:29:41.904Z,24.00
2022-11-18T06:32:13.304Z,19.30
2022-11-18T06:34:44.563Z,23.73
2022-11-18T06:37:18.125Z,23.70
2022-11-18T06:39:49.517Z,25.77
2022-11-18T06:42:39.323Z,25.03
2022-11-18T06:45:10.894Z,24.93
2022-11-18T06:47:42.344Z,26.17
2022-11-18T06:50:13.735Z,22.13
2022-11-18T06:52:45.362Z,25.73
2022-11-18T06:55:16.744Z,27.03
2022-11-18T06:57:48.052Z,21.50
2022-11-18T07:00:19.719Z,23.77
2022-11-18T07:02:51.045Z,23.17
2022-11-18T07:05:22.508Z,25.10
2022-11-18T07:07:53.908Z,21.50
2022-11-18T07:10:25.471Z,26.50
2022-11-18T07:12:56.720Z,25.80
2022-11-18T07:15:28.016Z,22.70
2022-11-18T07:17:59.364Z,25.50
2022-11-18T07:20:30.693Z,22.77
2022-11-18T07:23:02.035Z,22.77
2022-11-18T07:25:33.390Z,24.07
2022-11-18T07:28:04.839Z,23.33
2022-11-18T07:30:36.244Z,20.63
2022-11-18T07:33:07.533Z,19.73
2022-11-18T07:35:38.916Z,19.83
2022-11-18T07:38:10.336Z,18.23
2022-11-18T07:40:41.674Z,23.50
2022-11-18T07:43:13.046Z,18.90
2022-11-18T07:45:44.404Z,20.93
2022-11-18T07:48:15.770Z,18.93
2022-11-18T07:50:47.461Z,19.23
2022-11-18T07:53:18.820Z,22.90
2022-11-18T07:55:50.184Z,21.33
2022-11-18T07:58:21.551Z,20.80
2022-11-18T08:00:52.884Z,20.53
2022-11-18T08:03:27.761Z,20.30
2022-11-18T08:06:00.143Z,20.67
2022-11-18T08:08:31.847Z,17.43
2022-11-18T08:11:06.240Z,21.40
2022-11-18T08:13:37.959Z,22.73
2022-11-18T08:16:20.928Z,23.67
2022-11-18T08:18:52.987Z,21.50
2022-11-18T08:21:24.465Z,23.03
2022-11-18T08:23:58.024Z,23.03
2022-11-18T08:26:29.488Z,23.60
2022-11-18T08:29:00.912Z,22.67
2022-11-18T08:31:32.447Z,26.90
2022-11-18T08:34:07.512Z,25.07
2022-11-18T08:36:39.241Z,24.13
2022-11-18T08:39:12.125Z,21.27
2022-11-18T08:41:44.108Z,25.73
2022-11-18T08:44:16.781Z,28.00
2022-11-18T08:46:48.112Z,26.03
2022-11-18T08:49:19.838Z,24.93
2022-11-18T08:51:51.517Z,28.13
2022-11-18T08:54:22.971Z,30.20
2022-11-18T08:56:54.329Z,25.67
2022-11-18T08:59:25.899Z,28.97
2022-11-18T09:01:57.281Z,29.80
2022-11-18T09:04:28.677Z,26.40
2022-11-18T09:07:00.092Z,31.80
2022-11-18T09:09:31.612Z,26.30
2022-11-18T09:12:03.082Z,28.63
2022-11-18T09:17:26.027Z,31.10
2022-11-18T09:19:57.356Z,25.67
2022-11-18T09:22:28.708Z,27.07
2022-11-18T09:25:00.034Z,24.87
2022-11-18T09:27:31.392Z,28.27
2022-11-18T09:30:02.884Z,31.23
2022-11-18T09:32:34.485Z,26.73
2022-11-18T09:35:05.873Z,32.87
2022-11-18T09:37:37.181Z,28.93
2022-11-18T09:40:17.962Z,25.50
2022-11-18T09:43:15.538Z,27.30
2022-11-18T09:45:52.172Z,24.87
2022-11-18T09:48:46.341Z,28.23
2022-11-18T09:51:17.615Z,27.03
2022-11-18T09:53:49.250Z,24.63
2022-11-18T09:56:22.092Z,27.17
2022-11-18T09:58:53.465Z,29.93
2022-11-18T10:01:27.720Z,22.90
2022-11-18T10:03:59.309Z,26.30
2022-11-18T10:06:34.059Z,22.27
2022-11-18T10:09:39.239Z,25.70
2022-11-18T10:12:40.635Z,20.87
2022-11-18T10:15:35.740Z,21.37
2022-11-18T10:18:44.915Z,24.93
2022-11-18T10:21:24.435Z,22.23
2022-11-18T10:24:28.544Z,22.90
2022-11-18T10:27:00.553Z,22.20
2022-11-18T10:29:32.818Z,22.23
2022-11-18T10:32:12.276Z,22.50
2022-11-18T10:34:52.490Z,21.07
2022-11-18T10:38:00.617Z,21.77
2022-11-18T10:40:27.777Z,20.37
2022-11-18T10:42:59.613Z,26.20
2022-11-18T10:45:32.493Z,21.73
2022-11-18T10:48:16.500Z,20.80
2022-11-18T10:50:55.583Z,22.07
2022-11-18T10:53:32.122Z,24.87
2022-11-18T10:56:15.937Z,20.83
2022-11-18T10:58:49.918Z,23.70
2022-11-18T11:01:24.287Z,22.10
2022-11-18T11:04:00.201Z,19.23
2022-11-18T11:06:34.186Z,24.20
2022-11-18T11:09:23.331Z,18.23
2022-11-18T11:12:13.160Z,20.47
2022-11-18T11:14:53.558Z,23.80
2022-11-18T11:18:10.490Z,25.77
2022-11-18T11:20:41.854Z,24.57
2022-11-18T11:23:18.993Z,19.17
2022-11-18T11:28:58.125Z,22.30
2022-11-18T11:31:50.923Z,20.43
2022-11-18T11:34:29.178Z,19.87
2022-11-18T11:37:09.352Z,18.27
2022-11-18T11:39:53.129Z,20.13
2022-11-18T11:42:53.006Z,21.83
2022-11-18T11:45:33.722Z,18.07
2022-11-18T11:48:31.139Z,17.77
2022-11-18T11:53:54.991Z,16.00
2022-11-18T11:56:34.779Z,18.13
2022-11-18T11:59:44.753Z,18.33
2022-11-18T12:02:35.468Z,19.73
2022-11-18T12:05:28.885Z,20.57
2022-11-18T12:08:01.625Z,17.43
2022-11-18T12:10:47.329Z,16.60
2022-11-18T12:13:30.420Z,15.33
2022-11-18T12:16:18.326Z,17.93
2022-11-18T12:19:16.769Z,15.70
2022-11-18T12:22:00.478Z,16.23
2022-11-18T12:24:36.344Z,13.00
2022-11-18T12:27:29.885Z,14.88
2022-11-18T12:30:03.713Z,13.57
2022-11-18T12:32:43.716Z,13.47
2022-11-18T12:35:14.950Z,12.27
2022-11-18T12:37:52.171Z,13.77
2022-11-18T12:40:34.097Z,12.07
2022-11-18T12:43:44.228Z,15.23
2022-11-18T12:46:31.027Z,12.83
2022-11-18T12:49:31.433Z,12.73
2022-11-18T12:52:39.510Z,13.27
2022-11-18T12:55:19.287Z,14.17
2022-11-18T12:57:51.772Z,11.50
2022-11-18T13:00:23.092Z,11.23
2022-11-18T13:02:59.733Z,12.93
2022-11-18T13:05:33.895Z,14.33
2022-11-18T13:08:17.954Z,13.43
2022-11-18T13:11:14.716Z,11.70
2022-11-18T13:13:46.498Z,11.98
2022-11-18T13:16:40.448Z,11.77
2022-11-18T13:19:21.957Z,11.50
2022-11-18T13:22:13.598Z,13.87
2022-11-18T13:24:47.824Z,11.53
2022-11-18T13:27:27.853Z,12.80
2022-11-18T13:30:13.318Z,15.03
2022-11-18T13:32:46.595Z,13.53
2022-11-18T13:35:21.366Z,11.20
2022-11-18T13:37:59.430Z,10.97
2022-11-18T13:40:38.777Z,10.60
2022-11-18T13:43:11.909Z,13.37
2022-11-18T13:45:43.297Z,10.53
2022-11-18T13:48:15.089Z,11.00
2022-11-18T13:50:55.063Z,13.00
2022-11-18T13:53:38.178Z,10.87
2022-11-18T13:56:20.269Z,9.17
2022-11-18T13:59:16.334Z,7.10
2022-11-18T14:01:54.928Z,10.17
2022-11-18T14:04:30.245Z,10.37
2022-11-18T14:07:33.013Z,10.33
2022-11-18T14:10:07.483Z,8.03
2022-11-18T14:12:38.835Z,7.87
2022-11-18T14:15:14.613Z,8.50
2022-11-18T14:17:58.823Z,10.82
2022-11-18T14:20:31.442Z,8.30
2022-11-18T14:23:05.430Z,10.70
2022-11-18T14:25:36.958Z,9.60
2022-11-18T14:28:17.582Z,7.80
2022-11-18T14:31:07.469Z,10.30
2022-11-18T14:33:39.025Z,10.13
2022-11-18T14:36:17.706Z,10.13
2022-11-18T14:39:19.219Z,8.50
2022-11-18T14:41:48.565Z,9.13
2022-11-18T14:44:21.688Z,9.17
2022-11-18T14:46:57.303Z,9.63
2022-11-18T14:49:31.413Z,5.72
2022-11-18T14:52:04.476Z,8.63
2022-11-18T14:54:35.772Z,7.47
2022-11-18T14:57:10.917Z,8.57
2022-11-18T14:59:42.801Z,8.63
2022-11-18T15:02:15.996Z,8.97
2022-11-18T15:04:48.328Z,8.50
2022-11-18T15:07:23.813Z,7.50
2022-11-18T15:09:55.496Z,10.23
2022-11-18T15:12:26.849Z,9.00
2022-11-18T15:14:58.108Z,9.07
2022-11-18T15:17:29.700Z,8.43
2022-11-18T15:20:01.079Z,9.20
2022-11-18T15:22:33.994Z,8.97
2022-11-18T15:25:05.692Z,10.40
2022-11-18T15:27:37.632Z,10.10
2022-11-18T15:30:12.553Z,12.43
2022-11-18T15:32:43.967Z,10.07
2022-11-18T15:35:15.339Z,10.30
2022-11-18T15:37:46.696Z,8.40
2022-11-18T15:40:19.291Z,9.13
2022-11-18T15:42:52.273Z,10.27
2022-11-18T15:45:23.796Z,8.17
2022-11-18T15:47:55.087Z,10.03
2022-11-18T15:50:26.359Z,12.70
2022-11-18T15:52:57.718Z,9.90
2022-11-18T15:55:29.015Z,11.03
2022-11-18T15:58:00.287Z,8.90
2022-11-18T16:00:31.539Z,10.43
2022-11-18T16:03:02.864Z,12.00
2022-11-18T16:05:34.140Z,11.43
2022-11-18T16:08:05.535Z,11.70
2022-11-18T16:10:55.307Z,11.87
2022-11-18T16:13:26.793Z,13.13
2022-11-18T16:15:58.066Z,13.57
2022-11-18T16:18:29.326Z,14.30
2022-11-18T16:21:00.693Z,10.97
2022-11-18T16:23:32.033Z,10.60
2022-11-18T16:26:03.860Z,13.03
2022-11-18T16:28:35.188Z,14.73
2022-11-18T16:31:25.947Z,11.30
2022-11-18T16:33:57.250Z,13.00
2022-11-18T16:36:28.723Z,12.03
2022-11-18T16:39:08.936Z,10.53
2022-11-18T16:41:41.463Z,15.43
2022-11-18T16:44:16.605Z,12.80
2022-11-18T16:46:50.216Z,11.60
2022-11-18T16:49:24.154Z,10.30
2022-11-18T16:51:56.692Z,13.97
2022-11-18T16:54:30.388Z,12.47
2022-11-18T16:57:01.811Z,10.13
2022-11-18T16:59:33.124Z,12.67
2022-11-18T17:02:05.676Z,14.37
2022-11-18T17:04:38.509Z,17.07
2022-11-18T17:07:09.911Z,11.30
2022-11-18T17:09:41.508Z,12.80
2022-11-18T17:12:12.857Z,11.83
2022-11-18T17:14:44.221Z,14.90
2022-11-18T17:17:15.504Z,14.07
2022-11-18T17:19:47.061Z,13.50
2022-11-18T17:22:19.438Z,10.67
2022-11-18T17:24:50.809Z,14.53
2022-11-18T17:27:22.165Z,14.67
2022-11-18T17:29:53.475Z,11.37
2022-11-18T17:32:24.722Z,15.33
2022-11-18T17:34:55.972Z,13.70
2022-11-18T17:37:29.286Z,13.67
2022-11-18T17:40:00.539Z,13.30
2022-11-18T17:42:31.860Z,13.97
2022-11-18T17:45:03.235Z,14.87
2022-11-18T17:47:34.495Z,12.43
2022-11-18T17:50:07.267Z,14.20
2022-11-18T17:52:38.531Z,14.17
2022-11-18T17:55:10.010Z,16.60
2022-11-18T17:57:41.280Z,13.83
2022-11-18T18:00:13.089Z,16.27
2022-11-18T18:02:44.431Z,14.93
2022-11-18T18:05:16.108Z,17.53
2022-11-18T18:07:48.330Z,14.50
2022-11-18T18:10:20.045Z,14.50
2022-11-18T18:13:09.979Z,14.57
2022-11-18T18:15:41.301Z,17.57
2022-11-18T18:18:12.727Z,17.50
2022-11-18T18:20:43.992Z,14.27
2022-11-18T18:23:15.370Z,17.17
2022-11-18T18:25:46.707Z,16.57
2022-11-18T18:28:18.540Z,14.03
2022-11-18T18:30:57.964Z,12.77
2022-11-18T18:33:29.495Z,14.93
2022-11-18T18:36:02.044Z,14.40
2022-11-18T18:38:35.353Z,14.97
2022-11-18T18:41:10.004Z,14.23
2022-11-18T18:43:41.688Z,14.50
2022-11-18T18:46:29.304Z,12.40
2022-11-18T18:49:09.359Z,15.27
2022-11-18T18:51:45.382Z,12.43
2022-11-18T18:54:19.824Z,18.83
2022-11-18T18:56:53.418Z,12.43
2022-11-18T18:59:24.794Z,14.23
2022-11-18T19:01:56.132Z,15.13
2022-11-18T19:04:27.519Z,14.27
2022-11-18T19:07:00.274Z,13.07
2022-11-18T19:09:36.296Z,11.43
2022-11-18T19:12:28.272Z,14.52
2022-11-18T19:14:59.716Z,13.83
2022-11-18T19:17:31.195Z,18.13
2022-11-18T19:20:20.908Z,15.67
2022-11-18T19:22:52.321Z,14.43
2022-11-18T19:25:23.710Z,14.43
2022-11-18T19:27:55.033Z,15.53
2022-11-18T19:30:26.979Z,16.20
2022-11-18T19:32:58.855Z,16.43
2022-11-18T19:35:30.234Z,11.80
2022-11-18T19:38:01.730Z,15.43
2022-11-18T19:40:34.199Z,17.87
2022-11-18T19:43:05.486Z,17.63
2022-11-18T19:45:36.982Z,16.57
2022-11-18T19:48:08.253Z,12.10
2022-11-18T19:50:39.629Z,11.97
2022-11-18T19:53:29.799Z,16.03
2022-11-18T19:56:09.335Z,14.93
2022-11-18T19:58:42.426Z,12.63
2022-11-18T20:01:22.719Z,13.30
2022-11-18T20:03:59.905Z,14.23
2022-11-18T20:06:31.844Z,10.77
2022-11-18T20:09:06.899Z,12.63
2022-11-18T20:11:38.477Z,12.97
2022-11-18T20:14:11.142Z,11.93
2022-11-18T20:16:42.588Z,13.93
2022-11-18T20:19:15.243Z,13.23
2022-11-18T20:21:48.060Z,15.47
2022-11-18T20:24:19.496Z,14.70
2022-11-18T20:26:51.964Z,15.40
2022-11-18T20:29:23.383Z,14.40
2022-11-18T20:31:55.913Z,14.13
2022-11-18T20:34:27.367Z,12.17
2022-11-18T20:36:58.750Z,10.83
2022-11-18T20:39:30.034Z,11.63
2022-11-18T20:42:19.793Z,12.57
2022-11-18T20:44:51.130Z,12.20
2022-11-18T20:47:22.414Z,14.00
2022-11-18T20:49:53.914Z,12.20
2022-11-18T20:52:25.237Z,11.73
2022-11-18T20:55:00.117Z,12.93
2022-11-18T20:57:33.972Z,12.03
2022-11-18T21:00:05.935Z,10.80
2022-11-18T21:02:37.197Z,12.90
2022-11-18T21:05:09.752Z,13.07
2022-11-18T21:07:41.149Z,10.60
2022-11-18T21:10:12.573Z,12.93
2022-11-18T21:13:03.896Z,14.30
2022-11-18T21:15:35.544Z,13.73
2022-11-18T21:18:06.897Z,14.37
2022-11-18T21:20:57.040Z,15.10
2022-11-18T21:23:28.376Z,14.80
2022-11-18T21:26:00.824Z,15.37
2022-11-18T21:28:32.101Z,15.47
2022-11-18T21:31:03.511Z,14.73
2022-11-18T21:33:34.833Z,15.10
2022-11-18T21:36:06.505Z,14.33
2022-11-18T21:38:37.763Z,16.63
2022-11-18T21:41:09.695Z,15.33
2022-11-18T21:44:04.551Z,16.33
2022-11-18T21:46:34.483Z,14.93
2022-11-18T21:49:06.155Z,16.87
2022-11-18T21:51:37.713Z,19.47
2022-11-18T21:54:09.233Z,15.43
2022-11-18T21:56:40.604Z,17.13
2022-11-18T21:59:11.996Z,13.80
2022-11-18T22:01:43.316Z,18.63
2022-11-18T22:04:34.576Z,17.10
2022-11-18T22:07:06.010Z,13.07
2022-11-18T22:09:37.335Z,16.73
2022-11-18T22:12:09.091Z,12.90
2022-11-18T22:14:41.140Z,17.53
2022-11-18T22:17:12.396Z,21.00
2022-11-18T22:19:43.692Z,15.07
2022-11-18T22:22:15.550Z,16.83
2022-11-18T22:24:46.810Z,17.30
2022-11-18T22:27:18.086Z,14.13
2022-11-18T22:29:49.348Z,15.27
2022-11-18T22:32:20.608Z,17.17
2022-11-18T22:34:52.047Z,13.13
2022-11-18T22:37:23.362Z,13.23
2022-11-18T22:39:54.680Z,13.27
2022-11-18T22:42:44.573Z,19.80
2022-11-18T22:45:16.428Z,14.77
2022-11-18T22:47:47.746Z,14.47
2022-11-18T22:50:19.231Z,15.47
2022-11-18T22:52:50.512Z,15.93
2022-11-18T22:55:21.826Z,15.83
2022-11-18T22:57:53.122Z,13.40
2022-11-18T23:00:24.466Z,12.73
2022-11-18T23:02:55.724Z,13.37
2022-11-18T23:05:27.055Z,13.37
2022-11-18T23:07:58.420Z,12.53
2022-11-18T23:10:30.342Z,13.07
2022-11-18T23:13:20.421Z,12.43
2022-11-18T23:15:51.706Z,15.60
2022-11-18T23:18:23.079Z,13.50
2022-11-18T23:21:02.016Z,14.30
2022-11-18T23:23:33.395Z,14.20
2022-11-18T23:26:13.093Z,12.77
2022-11-18T23:28:44.645Z,13.63
2022-11-18T23:31:18.837Z,14.47
2022-11-18T23:33:50.614Z,17.27
2022-11-18T23:36:22.639Z,15.33
2022-11-18T23:38:54.119Z,15.90
2022-11-18T23:41:25.396Z,13.77
2022-11-18T23:43:56.727Z,12.63
2022-11-18T23:46:28.062Z,14.00
2022-11-18T23:48:59.338Z,13.63
2022-11-18T23:51:30.679Z,13.70
2022-11-18T23:54:02.023Z,12.97
2022-11-18T23:56:37.766Z,12.33
